Condor Trader — DUIL — position and weather

sailwx.info

Track history (hours):
 
Tides and Currents Weather Stations Pressure Air Temp Water Temp Dewpoint Dewpoint Depression Visibility Wind Speed Wind Dir Waves Ship Positions

Condor Trader

Last reported at 2018-Jan-27 01:50 UTC. Time now 2018-Feb-18 18:33 UTC.
Position N 09°41' W 079°58'.
Warning: this ship's position is 22 days out of date.

Length 149 m; draft 9.9 m.

Type: Tanker. MMSI: 548944000.

Date/timePositionNaut miles runAvg speedWind from/ knotsBaromVisibWave heightAir tempDewpointWater temp
2018-Jan-27 01:50N 09°41' W 079°58'412.2
2018-Jan-27 01:30N 09°37' W 079°57'612.3
2018-Jan-27 01:00N 09°31' W 079°56'612.0
2018-Jan-27 00:30N 09°25' W 079°55'3 7.0
2018-Jan-27 00:00N 09°22' W 079°56'0 0.0
2018-Jan-26 23:30N 09°22' W 079°55'0 0.0
2018-Jan-26 23:00N 09°22' W 079°55'0 0.0
2018-Jan-26 22:30N 09°22' W 079°56'0 0.0
2018-Jan-26 22:00N 09°22' W 079°56'0 0.0
2018-Jan-26 21:30N 09°22' W 079°56'0 0.0
2018-Jan-26 21:00N 09°22' W 079°56'0 0.0
2018-Jan-26 20:30N 09°22' W 079°56'0 0.0
2018-Jan-26 20:00N 09°22' W 079°56'0 0.0
2018-Jan-26 19:27N 09°22' W 079°56'0 0.0
2018-Jan-26 19:00N 09°22' W 079°56'0 0.0
2018-Jan-26 18:30N 09°22' W 079°56'0 0.0
2018-Jan-26 18:00N 09°22' W 079°56'0 0.0
2018-Jan-26 17:30N 09°22' W 079°56'0 0.0
2018-Jan-26 17:00N 09°22' W 079°56'0 0.0
2018-Jan-26 16:27N 09°22' W 079°56'0 0.0
2018-Jan-26 16:00N 09°22' W 079°56'0 0.0
2018-Jan-26 15:30N 09°22' W 079°56'0 0.0
2018-Jan-26 15:00N 09°22' W 079°56'0 0.0
2018-Jan-26 14:30N 09°22' W 079°56'0 0.0
2018-Jan-26 14:00N 09°22' W 079°56'0 0.0
2018-Jan-26 13:30N 09°22' W 079°56'0 0.1
2018-Jan-26 13:00N 09°22' W 079°56'0 0.0
2018-Jan-26 12:30N 09°22' W 079°56'0 0.0
2018-Jan-26 12:00N 09°22' W 079°56'0 0.0
2018-Jan-26 11:30N 09°22' W 079°56'0 0.0
2018-Jan-26 11:00N 09°22' W 079°56'0 0.0
2018-Jan-26 10:30N 09°22' W 079°56'0 0.0
2018-Jan-26 10:00N 09°22' W 079°56'0 0.0
2018-Jan-26 09:30N 09°22' W 079°56'0 0.0
2018-Jan-26 09:00N 09°22' W 079°56'0 0.3
2018-Jan-26 08:30N 09°21' W 079°55'3 6.4
2018-Jan-26 08:00N 09°18' W 079°55'2 3.4
2018-Jan-26 07:30N 09°17' W 079°55'0 0.4
2018-Jan-26 07:00N 09°16' W 079°55'0 0.6
2018-Jan-26 06:30N 09°16' W 079°55'1 2.2
2018-Jan-26 06:00N 09°15' W 079°55'4 8.7
2018-Jan-26 05:30N 09°11' W 079°53'  
Track history (hours):
 
Tides and Currents Weather Stations Pressure Air Temp Water Temp Dewpoint Dewpoint Depression Visibility Wind Speed Wind Dir Waves Ship Positions

Condor Trader

Last reported at 2018-Jan-27 01:50 UTC. Time now 2018-Feb-18 18:33 UTC.
Position N 09°41' W 079°58'.
Warning: this ship's position is 22 days out of date.

Length 149 m; draft 9.9 m.

Type: Tanker. MMSI: 548944000.

Date/timePositionNaut miles runAvg speedWind from/ knotsBaromVisibWave heightAir tempDewpointWater temp
2018-Jan-27 01:50N 09°41' W 079°58'412.2
2018-Jan-27 01:30N 09°37' W 079°57'612.3
2018-Jan-27 01:00N 09°31' W 079°56'612.0
2018-Jan-27 00:30N 09°25' W 079°55'3 7.0
2018-Jan-27 00:00N 09°22' W 079°56'0 0.0
2018-Jan-26 23:30N 09°22' W 079°55'0 0.0
2018-Jan-26 23:00N 09°22' W 079°55'0 0.0
2018-Jan-26 22:30N 09°22' W 079°56'0 0.0
2018-Jan-26 22:00N 09°22' W 079°56'0 0.0
2018-Jan-26 21:30N 09°22' W 079°56'0 0.0
2018-Jan-26 21:00N 09°22' W 079°56'0 0.0
2018-Jan-26 20:30N 09°22' W 079°56'0 0.0
2018-Jan-26 20:00N 09°22' W 079°56'0 0.0
2018-Jan-26 19:27N 09°22' W 079°56'0 0.0
2018-Jan-26 19:00N 09°22' W 079°56'0 0.0
2018-Jan-26 18:30N 09°22' W 079°56'0 0.0
2018-Jan-26 18:00N 09°22' W 079°56'0 0.0
2018-Jan-26 17:30N 09°22' W 079°56'0 0.0
2018-Jan-26 17:00N 09°22' W 079°56'0 0.0
2018-Jan-26 16:27N 09°22' W 079°56'0 0.0
2018-Jan-26 16:00N 09°22' W 079°56'0 0.0
2018-Jan-26 15:30N 09°22' W 079°56'0 0.0
2018-Jan-26 15:00N 09°22' W 079°56'0 0.0
2018-Jan-26 14:30N 09°22' W 079°56'0 0.0
2018-Jan-26 14:00N 09°22' W 079°56'0 0.0
2018-Jan-26 13:30N 09°22' W 079°56'0 0.1
2018-Jan-26 13:00N 09°22' W 079°56'0 0.0
2018-Jan-26 12:30N 09°22' W 079°56'0 0.0
2018-Jan-26 12:00N 09°22' W 079°56'0 0.0
2018-Jan-26 11:30N 09°22' W 079°56'0 0.0
2018-Jan-26 11:00N 09°22' W 079°56'0 0.0
2018-Jan-26 10:30N 09°22' W 079°56'0 0.0
2018-Jan-26 10:00N 09°22' W 079°56'0 0.0
2018-Jan-26 09:30N 09°22' W 079°56'0 0.0
2018-Jan-26 09:00N 09°22' W 079°56'0 0.3
2018-Jan-26 08:30N 09°21' W 079°55'3 6.4
2018-Jan-26 08:00N 09°18' W 079°55'2 3.4
2018-Jan-26 07:30N 09°17' W 079°55'0 0.4
2018-Jan-26 07:00N 09°16' W 079°55'0 0.6
2018-Jan-26 06:30N 09°16' W 079°55'1 2.2
2018-Jan-26 06:00N 09°15' W 079°55'4 8.7
2018-Jan-26 05:30N 09°11' W 079°53'  

Dump ship's entire track history